Robinson Creek, KY (41560)

4:32 AM EST on December 29, 2014 (GMT -0500)
Sookeys Creek | Change Station
CLOSE
Current Station
Personal Weather Station
Location: Kentucky, KY
Elevation: 850 ft
Nearby Weather Stations

Elev 850 ft 37.40 °N, 82.54 °W | Updated 1 second ago

Overcast
Overcast
39.9 °F
Feels Like 40 °F
N
0.0
Wind Variable Wind from East
Gusts 0.0 mph

Today
High -- | Low -- °F
--% Chance of Precip.
Yesterday
High -- | Low -- °F
Precip. -- in
7:43 AM 5:21 PM
First Quarter, 57% visible
Pressure 30.08 in
Visibility 0.2 miles
Clouds Overcast 200 ft
Windchill 40 °F
Dew Point 40 °F
Humidity 99%
Rainfall 0.04 in
Snow Depth Not available.
UV 0 out of 12
Pollen .10 out of 12
Air Quality Not available.
Flu Activity Not available.
METAR KLNP 290915Z AUTO 01004KT 1/4SM FG OVC002 04/04 A3008 RMK AO2

More Conditions Fewer Conditions

Pressure 30.08 in
Visibility 0.2 miles
Clouds Overcast 200 ft
Windchill 40 °F
Dew Point 40 °F
Humidity 99%
Rainfall 0.04 in
Snow Depth Not available.
UV 0 out of 12
Pollen .10 out of 12
Air Quality Not available.
Flu Activity Not available.
METAR KLNP 290915Z AUTO 01004KT 1/4SM FG OVC002 04/04 A3008 RMK AO2

More Conditions Fewer Conditions

10-Day Weather Forecast

Almanac

Astronomy

Dec. 29, 2014 Rise Set
Actual Time
Civil Twilight
Nautical Twilight
Astronomical Twilight
Moon
Length of Visible Light
Length of Day
Tomorrow will be .
, % of the Moon is Illuminated

Today's Extremes

State Highs State Lows

Community

WunderPhotos

Upload Photos

1,781,562 photos uploaded!

WunderBlogs® & News

Nearby

Air Quality

  Air Quality AQ Index Pollutant
Not available.

Snow Depth

Station Depth Elevation

Earthquake Activity

City Distance Mag. Time & Date
Minimum magnitude displayed is 2.5.

Coastal Water Temperatures

Place Temperature

Nearby Weather Stations